sensor_id;sensor_type;location;lat;lon;timestamp;P1;durP1;ratioP1;P2;durP2;ratioP2
2840;SDS011;53423;49.224;12.074;2023-02-07T00:01:21;17.50;;;13.17;;
2840;SDS011;53423;49.224;12.074;2023-02-07T00:03:50;18.47;;;12.77;;
2840;SDS011;53423;49.224;12.074;2023-02-07T00:06:19;17.87;;;12.70;;
2840;SDS011;53423;49.224;12.074;2023-02-07T00:08:49;17.33;;;12.47;;
2840;SDS011;53423;49.224;12.074;2023-02-07T00:11:17;16.27;;;12.37;;
2840;SDS011;53423;49.224;12.074;2023-02-07T00:13:49;20.53;;;14.63;;
2840;SDS011;53423;49.224;12.074;2023-02-07T00:16:19;20.07;;;14.47;;
2840;SDS011;53423;49.224;12.074;2023-02-07T00:18:48;19.57;;;13.63;;
2840;SDS011;53423;49.224;12.074;2023-02-07T00:21:18;19.73;;;14.43;;
2840;SDS011;53423;49.224;12.074;2023-02-07T00:23:48;21.17;;;14.60;;
2840;SDS011;53423;49.224;12.074;2023-02-07T00:26:16;21.53;;;13.97;;
2840;SDS011;53423;49.224;12.074;2023-02-07T00:28:47;20.83;;;14.87;;
2840;SDS011;53423;49.224;12.074;2023-02-07T00:31:16;20.03;;;15.07;;
2840;SDS011;53423;49.224;12.074;2023-02-07T00:33:46;20.97;;;14.60;;
2840;SDS011;53423;49.224;12.074;2023-02-07T00:36:16;20.17;;;14.03;;
2840;SDS011;53423;49.224;12.074;2023-02-07T00:38:46;22.67;;;14.73;;
2840;SDS011;53423;49.224;12.074;2023-02-07T00:41:15;24.13;;;14.53;;
2840;SDS011;53423;49.224;12.074;2023-02-07T00:43:45;17.17;;;12.50;;
2840;SDS011;53423;49.224;12.074;2023-02-07T00:46:15;17.17;;;12.83;;
2840;SDS011;53423;49.224;12.074;2023-02-07T00:48:44;20.63;;;13.57;;
2840;SDS011;53423;49.224;12.074;2023-02-07T00:51:12;20.37;;;13.43;;
2840;SDS011;53423;49.224;12.074;2023-02-07T00:53:41;21.07;;;14.27;;
2840;SDS011;53423;49.224;12.074;2023-02-07T00:56:10;18.90;;;13.20;;
2840;SDS011;53423;49.224;12.074;2023-02-07T00:58:38;18.00;;;12.97;;
2840;SDS011;53423;49.224;12.074;2023-02-07T01:01:07;18.43;;;12.40;;
2840;SDS011;53423;49.224;12.074;2023-02-07T01:03:36;15.63;;;11.73;;
2840;SDS011;53423;49.224;12.074;2023-02-07T01:06:05;16.27;;;12.10;;
2840;SDS011;53423;49.224;12.074;2023-02-07T01:08:33;17.83;;;13.23;;
2840;SDS011;53423;49.224;12.074;2023-02-07T01:11:04;16.37;;;12.73;;
2840;SDS011;53423;49.224;12.074;2023-02-07T01:13:35;17.63;;;12.60;;
2840;SDS011;53423;49.224;12.074;2023-02-07T01:16:03;18.67;;;13.17;;
2840;SDS011;53423;49.224;12.074;2023-02-07T01:18:32;15.77;;;12.37;;
2840;SDS011;53423;49.224;12.074;2023-02-07T01:21:01;19.70;;;12.53;;
2840;SDS011;53423;49.224;12.074;2023-02-07T01:23:29;17.60;;;11.90;;
2840;SDS011;53423;49.224;12.074;2023-02-07T01:25:57;18.77;;;12.47;;
2840;SDS011;53423;49.224;12.074;2023-02-07T01:28:25;17.27;;;11.57;;
2840;SDS011;53423;49.224;12.074;2023-02-07T01:30:52;17.53;;;11.70;;
2840;SDS011;53423;49.224;12.074;2023-02-07T01:33:20;16.77;;;11.27;;
2840;SDS011;53423;49.224;12.074;2023-02-07T01:35:48;19.37;;;12.23;;
2840;SDS011;53423;49.224;12.074;2023-02-07T01:38:18;16.20;;;12.03;;
2840;SDS011;53423;49.224;12.074;2023-02-07T01:40:46;18.17;;;12.20;;
2840;SDS011;53423;49.224;12.074;2023-02-07T01:43:14;19.33;;;12.97;;
2840;SDS011;53423;49.224;12.074;2023-02-07T01:45:45;21.63;;;13.67;;
2840;SDS011;53423;49.224;12.074;2023-02-07T01:48:14;21.87;;;14.03;;
2840;SDS011;53423;49.224;12.074;2023-02-07T01:50:47;18.30;;;12.50;;
2840;SDS011;53423;49.224;12.074;2023-02-07T01:53:19;21.50;;;14.00;;
2840;SDS011;53423;49.224;12.074;2023-02-07T01:55:51;19.27;;;14.00;;
2840;SDS011;53423;49.224;12.074;2023-02-07T01:58:21;18.03;;;13.10;;
2840;SDS011;53423;49.224;12.074;2023-02-07T02:00:50;16.93;;;12.57;;
2840;SDS011;53423;49.224;12.074;2023-02-07T02:03:18;19.63;;;13.50;;
2840;SDS011;53423;49.224;12.074;2023-02-07T02:05:46;17.90;;;13.43;;
2840;SDS011;53423;49.224;12.074;2023-02-07T02:08:20;20.27;;;13.93;;
2840;SDS011;53423;49.224;12.074;2023-02-07T02:13:42;18.53;;;13.23;;
2840;SDS011;53423;49.224;12.074;2023-02-07T02:16:17;18.17;;;13.53;;
2840;SDS011;53423;49.224;12.074;2023-02-07T02:19:01;18.30;;;13.73;;
2840;SDS011;53423;49.224;12.074;2023-02-07T02:21:57;19.50;;;13.60;;
2840;SDS011;53423;49.224;12.074;2023-02-07T02:24:54;17.20;;;13.70;;
2840;SDS011;53423;49.224;12.074;2023-02-07T02:27:43;21.70;;;13.67;;
2840;SDS011;53423;49.224;12.074;2023-02-07T02:30:36;18.73;;;13.30;;
2840;SDS011;53423;49.224;12.074;2023-02-07T02:33:28;18.80;;;13.00;;
2840;SDS011;53423;49.224;12.074;2023-02-07T02:36:08;20.30;;;14.47;;
2840;SDS011;53423;49.224;12.074;2023-02-07T02:38:41;19.40;;;13.73;;
2840;SDS011;53423;49.224;12.074;2023-02-07T02:41:17;23.03;;;14.10;;
2840;SDS011;53423;49.224;12.074;2023-02-07T02:43:49;17.93;;;13.57;;
2840;SDS011;53423;49.224;12.074;2023-02-07T02:46:21;19.50;;;13.53;;
2840;SDS011;53423;49.224;12.074;2023-02-07T02:48:54;22.30;;;13.23;;
2840;SDS011;53423;49.224;12.074;2023-02-07T02:51:27;19.30;;;13.23;;
2840;SDS011;53423;49.224;12.074;2023-02-07T02:53:56;24.50;;;13.90;;
2840;SDS011;53423;49.224;12.074;2023-02-07T02:56:34;18.43;;;13.83;;
2840;SDS011;53423;49.224;12.074;2023-02-07T02:59:24;20.53;;;14.63;;
2840;SDS011;53423;49.224;12.074;2023-02-07T03:02:05;19.90;;;14.30;;
2840;SDS011;53423;49.224;12.074;2023-02-07T03:04:55;18.53;;;13.10;;
2840;SDS011;53423;49.224;12.074;2023-02-07T03:07:48;18.50;;;13.17;;
2840;SDS011;53423;49.224;12.074;2023-02-07T03:10:26;14.90;;;11.80;;
2840;SDS011;53423;49.224;12.074;2023-02-07T03:13:02;17.17;;;12.80;;
2840;SDS011;53423;49.224;12.074;2023-02-07T03:15:39;16.83;;;12.50;;
2840;SDS011;53423;49.224;12.074;2023-02-07T03:18:17;18.47;;;13.70;;
2840;SDS011;53423;49.224;12.074;2023-02-07T03:20:50;17.97;;;13.17;;
2840;SDS011;53423;49.224;12.074;2023-02-07T03:23:21;18.23;;;12.80;;
2840;SDS011;53423;49.224;12.074;2023-02-07T03:25:50;19.20;;;13.97;;
2840;SDS011;53423;49.224;12.074;2023-02-07T03:28:18;19.03;;;13.67;;
2840;SDS011;53423;49.224;12.074;2023-02-07T03:30:48;21.33;;;14.33;;
2840;SDS011;53423;49.224;12.074;2023-02-07T03:33:21;19.77;;;14.20;;
2840;SDS011;53423;49.224;12.074;2023-02-07T03:35:55;20.10;;;14.57;;
2840;SDS011;53423;49.224;12.074;2023-02-07T03:38:28;20.93;;;14.10;;
2840;SDS011;53423;49.224;12.074;2023-02-07T03:40:58;20.57;;;15.50;;
2840;SDS011;53423;49.224;12.074;2023-02-07T03:43:31;21.37;;;15.60;;
2840;SDS011;53423;49.224;12.074;2023-02-07T03:46:01;18.97;;;13.77;;
2840;SDS011;53423;49.224;12.074;2023-02-07T03:48:29;16.33;;;13.53;;
2840;SDS011;53423;49.224;12.074;2023-02-07T03:50:58;16.97;;;13.00;;
2840;SDS011;53423;49.224;12.074;2023-02-07T03:53:26;22.17;;;13.90;;
2840;SDS011;53423;49.224;12.074;2023-02-07T03:55:54;19.60;;;14.70;;
2840;SDS011;53423;49.224;12.074;2023-02-07T03:58:23;21.20;;;14.10;;
2840;SDS011;53423;49.224;12.074;2023-02-07T04:00:50;22.83;;;13.80;;
2840;SDS011;53423;49.224;12.074;2023-02-07T04:03:18;21.90;;;13.97;;
2840;SDS011;53423;49.224;12.074;2023-02-07T04:05:47;21.03;;;14.93;;
2840;SDS011;53423;49.224;12.074;2023-02-07T04:08:16;22.90;;;15.13;;
2840;SDS011;53423;49.224;12.074;2023-02-07T04:10:44;22.23;;;16.53;;
2840;SDS011;53423;49.224;12.074;2023-02-07T04:13:22;22.90;;;16.07;;
2840;SDS011;53423;49.224;12.074;2023-02-07T04:15:50;21.37;;;15.63;;
2840;SDS011;53423;49.224;12.074;2023-02-07T04:18:18;21.80;;;16.67;;
2840;SDS011;53423;49.224;12.074;2023-02-07T04:20:46;24.60;;;17.27;;
2840;SDS011;53423;49.224;12.074;2023-02-07T04:23:14;23.40;;;17.17;;
2840;SDS011;53423;49.224;12.074;2023-02-07T04:25:44;25.10;;;17.03;;
2840;SDS011;53423;49.224;12.074;2023-02-07T04:28:12;26.40;;;17.40;;
2840;SDS011;53423;49.224;12.074;2023-02-07T04:30:40;23.20;;;17.40;;
2840;SDS011;53423;49.224;12.074;2023-02-07T04:33:08;24.37;;;17.00;;
2840;SDS011;53423;49.224;12.074;2023-02-07T04:35:36;24.17;;;16.57;;
2840;SDS011;53423;49.224;12.074;2023-02-07T04:38:04;23.47;;;16.60;;
2840;SDS011;53423;49.224;12.074;2023-02-07T04:40:33;25.60;;;17.37;;
2840;SDS011;53423;49.224;12.074;2023-02-07T04:43:01;25.17;;;16.83;;
2840;SDS011;53423;49.224;12.074;2023-02-07T04:45:29;21.63;;;16.00;;
2840;SDS011;53423;49.224;12.074;2023-02-07T04:47:57;21.23;;;16.47;;
2840;SDS011;53423;49.224;12.074;2023-02-07T04:50:25;22.60;;;16.67;;
2840;SDS011;53423;49.224;12.074;2023-02-07T04:52:53;24.87;;;16.87;;
2840;SDS011;53423;49.224;12.074;2023-02-07T04:55:21;23.97;;;17.27;;
2840;SDS011;53423;49.224;12.074;2023-02-07T04:57:51;35.40;;;20.97;;
2840;SDS011;53423;49.224;12.074;2023-02-07T05:00:18;29.07;;;19.00;;
2840;SDS011;53423;49.224;12.074;2023-02-07T05:02:47;26.73;;;17.13;;
2840;SDS011;53423;49.224;12.074;2023-02-07T05:05:15;25.33;;;16.73;;
2840;SDS011;53423;49.224;12.074;2023-02-07T05:07:43;24.00;;;17.33;;
2840;SDS011;53423;49.224;12.074;2023-02-07T05:10:10;25.77;;;17.47;;
2840;SDS011;53423;49.224;12.074;2023-02-07T05:12:38;24.63;;;17.37;;
2840;SDS011;53423;49.224;12.074;2023-02-07T05:15:08;25.63;;;18.37;;
2840;SDS011;53423;49.224;12.074;2023-02-07T05:17:36;27.80;;;17.17;;
2840;SDS011;53423;49.224;12.074;2023-02-07T05:20:05;28.40;;;17.90;;
2840;SDS011;53423;49.224;12.074;2023-02-07T05:22:34;27.57;;;17.50;;
2840;SDS011;53423;49.224;12.074;2023-02-07T05:25:02;27.00;;;17.33;;
2840;SDS011;53423;49.224;12.074;2023-02-07T05:27:30;22.43;;;17.33;;
2840;SDS011;53423;49.224;12.074;2023-02-07T05:29:58;28.53;;;18.80;;
2840;SDS011;53423;49.224;12.074;2023-02-07T05:32:28;26.47;;;17.53;;
2840;SDS011;53423;49.224;12.074;2023-02-07T05:35:13;24.97;;;17.73;;
2840;SDS011;53423;49.224;12.074;2023-02-07T05:37:41;25.60;;;17.93;;
2840;SDS011;53423;49.224;12.074;2023-02-07T05:40:10;24.27;;;16.33;;
2840;SDS011;53423;49.224;12.074;2023-02-07T05:42:39;27.43;;;17.30;;
2840;SDS011;53423;49.224;12.074;2023-02-07T05:45:07;22.20;;;16.47;;
2840;SDS011;53423;49.224;12.074;2023-02-07T05:47:37;21.93;;;15.90;;
2840;SDS011;53423;49.224;12.074;2023-02-07T05:50:05;22.27;;;16.40;;
2840;SDS011;53423;49.224;12.074;2023-02-07T05:52:33;26.17;;;18.00;;
2840;SDS011;53423;49.224;12.074;2023-02-07T05:55:01;24.13;;;16.53;;
2840;SDS011;53423;49.224;12.074;2023-02-07T05:57:29;24.67;;;16.87;;
2840;SDS011;53423;49.224;12.074;2023-02-07T05:59:57;23.20;;;16.63;;
2840;SDS011;53423;49.224;12.074;2023-02-07T06:02:25;24.00;;;16.87;;
2840;SDS011;53423;49.224;12.074;2023-02-07T06:04:55;28.07;;;17.20;;
2840;SDS011;53423;49.224;12.074;2023-02-07T06:07:22;23.53;;;15.37;;
2840;SDS011;53423;49.224;12.074;2023-02-07T06:09:50;24.90;;;16.40;;
2840;SDS011;53423;49.224;12.074;2023-02-07T06:12:18;23.97;;;16.57;;
2840;SDS011;53423;49.224;12.074;2023-02-07T06:14:46;24.30;;;16.33;;
2840;SDS011;53423;49.224;12.074;2023-02-07T06:17:14;21.33;;;16.10;;
2840;SDS011;53423;49.224;12.074;2023-02-07T06:19:42;25.40;;;17.70;;
2840;SDS011;53423;49.224;12.074;2023-02-07T06:22:11;25.80;;;17.27;;
2840;SDS011;53423;49.224;12.074;2023-02-07T06:24:39;23.83;;;18.57;;
2840;SDS011;53423;49.224;12.074;2023-02-07T06:27:07;23.77;;;17.50;;
2840;SDS011;53423;49.224;12.074;2023-02-07T06:29:35;24.80;;;17.10;;
2840;SDS011;53423;49.224;12.074;2023-02-07T06:32:03;25.33;;;17.87;;
2840;SDS011;53423;49.224;12.074;2023-02-07T06:34:31;26.83;;;18.40;;
2840;SDS011;53423;49.224;12.074;2023-02-07T06:36:59;28.57;;;18.57;;
2840;SDS011;53423;49.224;12.074;2023-02-07T06:39:28;27.73;;;19.13;;
2840;SDS011;53423;49.224;12.074;2023-02-07T06:41:56;28.13;;;19.10;;
2840;SDS011;53423;49.224;12.074;2023-02-07T06:44:24;25.93;;;18.23;;
2840;SDS011;53423;49.224;12.074;2023-02-07T06:46:52;27.77;;;18.80;;
2840;SDS011;53423;49.224;12.074;2023-02-07T06:49:20;27.17;;;18.90;;
2840;SDS011;53423;49.224;12.074;2023-02-07T06:51:48;28.03;;;18.37;;
2840;SDS011;53423;49.224;12.074;2023-02-07T06:54:16;25.63;;;17.43;;
2840;SDS011;53423;49.224;12.074;2023-02-07T06:56:45;27.77;;;18.70;;
2840;SDS011;53423;49.224;12.074;2023-02-07T06:59:13;26.07;;;17.90;;
2840;SDS011;53423;49.224;12.074;2023-02-07T07:01:41;23.10;;;17.57;;
2840;SDS011;53423;49.224;12.074;2023-02-07T07:04:10;29.93;;;19.20;;
2840;SDS011;53423;49.224;12.074;2023-02-07T07:06:37;26.30;;;17.87;;
2840;SDS011;53423;49.224;12.074;2023-02-07T07:09:05;26.20;;;17.63;;
2840;SDS011;53423;49.224;12.074;2023-02-07T07:11:34;25.60;;;18.50;;
2840;SDS011;53423;49.224;12.074;2023-02-07T07:14:05;25.27;;;18.20;;
2840;SDS011;53423;49.224;12.074;2023-02-07T07:16:33;26.63;;;20.10;;
2840;SDS011;53423;49.224;12.074;2023-02-07T07:19:01;31.20;;;21.17;;
2840;SDS011;53423;49.224;12.074;2023-02-07T07:21:29;31.43;;;21.50;;
2840;SDS011;53423;49.224;12.074;2023-02-07T07:23:57;32.73;;;22.97;;
2840;SDS011;53423;49.224;12.074;2023-02-07T07:26:25;31.07;;;23.20;;
2840;SDS011;53423;49.224;12.074;2023-02-07T07:29:13;75.30;;;46.23;;
2840;SDS011;53423;49.224;12.074;2023-02-07T07:31:41;100.50;;;60.30;;
2840;SDS011;53423;49.224;12.074;2023-02-07T07:34:09;42.43;;;29.80;;
2840;SDS011;53423;49.224;12.074;2023-02-07T07:36:37;70.27;;;45.47;;
2840;SDS011;53423;49.224;12.074;2023-02-07T07:39:05;33.90;;;28.17;;
2840;SDS011;53423;49.224;12.074;2023-02-07T07:41:34;23.97;;;20.27;;
2840;SDS011;53423;49.224;12.074;2023-02-07T07:44:02;22.97;;;18.83;;
2840;SDS011;53423;49.224;12.074;2023-02-07T07:46:31;24.03;;;20.03;;
2840;SDS011;53423;49.224;12.074;2023-02-07T07:48:59;21.53;;;18.63;;
2840;SDS011;53423;49.224;12.074;2023-02-07T07:51:27;21.10;;;18.33;;
2840;SDS011;53423;49.224;12.074;2023-02-07T07:53:55;21.07;;;18.73;;
2840;SDS011;53423;49.224;12.074;2023-02-07T07:56:23;25.87;;;23.30;;
2840;SDS011;53423;49.224;12.074;2023-02-07T07:58:54;21.43;;;19.23;;
2840;SDS011;53423;49.224;12.074;2023-02-07T08:01:22;21.37;;;19.17;;
2840;SDS011;53423;49.224;12.074;2023-02-07T08:03:52;20.40;;;18.30;;
2840;SDS011;53423;49.224;12.074;2023-02-07T08:06:20;20.93;;;18.83;;
2840;SDS011;53423;49.224;12.074;2023-02-07T08:08:48;21.70;;;19.47;;
2840;SDS011;53423;49.224;12.074;2023-02-07T08:11:16;22.17;;;19.97;;
2840;SDS011;53423;49.224;12.074;2023-02-07T08:13:44;21.30;;;19.20;;
2840;SDS011;53423;49.224;12.074;2023-02-07T08:16:12;21.17;;;19.10;;
2840;SDS011;53423;49.224;12.074;2023-02-07T08:18:40;22.43;;;20.07;;
2840;SDS011;53423;49.224;12.074;2023-02-07T08:21:09;23.63;;;18.87;;
2840;SDS011;53423;49.224;12.074;2023-02-07T08:23:37;20.80;;;18.60;;
2840;SDS011;53423;49.224;12.074;2023-02-07T08:26:05;21.83;;;19.83;;
2840;SDS011;53423;49.224;12.074;2023-02-07T08:28:34;21.73;;;19.57;;
2840;SDS011;53423;49.224;12.074;2023-02-07T08:31:02;25.80;;;23.50;;
2840;SDS011;53423;49.224;12.074;2023-02-07T08:33:32;20.50;;;18.70;;
2840;SDS011;53423;49.224;12.074;2023-02-07T08:35:59;18.23;;;16.53;;
2840;SDS011;53423;49.224;12.074;2023-02-07T08:38:32;18.33;;;16.63;;
2840;SDS011;53423;49.224;12.074;2023-02-07T08:41:00;19.63;;;17.83;;
2840;SDS011;53423;49.224;12.074;2023-02-07T08:43:28;21.63;;;19.53;;
2840;SDS011;53423;49.224;12.074;2023-02-07T08:45:56;29.90;;;27.00;;
2840;SDS011;53423;49.224;12.074;2023-02-07T08:48:26;43.60;;;39.30;;
2840;SDS011;53423;49.224;12.074;2023-02-07T08:50:55;42.00;;;37.63;;
2840;SDS011;53423;49.224;12.074;2023-02-07T08:53:23;41.83;;;37.40;;
2840;SDS011;53423;49.224;12.074;2023-02-07T08:55:53;47.47;;;42.50;;
2840;SDS011;53423;49.224;12.074;2023-02-07T08:58:20;21.37;;;19.27;;
2840;SDS011;53423;49.224;12.074;2023-02-07T09:00:48;24.27;;;21.97;;
2840;SDS011;53423;49.224;12.074;2023-02-07T09:03:16;19.23;;;17.53;;
2840;SDS011;53423;49.224;12.074;2023-02-07T09:05:44;20.10;;;18.23;;
2840;SDS011;53423;49.224;12.074;2023-02-07T09:08:12;19.20;;;17.30;;
2840;SDS011;53423;49.224;12.074;2023-02-07T09:10:40;20.10;;;18.30;;
2840;SDS011;53423;49.224;12.074;2023-02-07T09:13:13;20.83;;;18.80;;
2840;SDS011;53423;49.224;12.074;2023-02-07T09:15:41;19.70;;;17.83;;
2840;SDS011;53423;49.224;12.074;2023-02-07T09:18:09;19.67;;;17.77;;
2840;SDS011;53423;49.224;12.074;2023-02-07T09:20:37;18.60;;;16.80;;
2840;SDS011;53423;49.224;12.074;2023-02-07T09:23:05;18.87;;;17.03;;
2840;SDS011;53423;49.224;12.074;2023-02-07T09:25:52;19.03;;;17.23;;
2840;SDS011;53423;49.224;12.074;2023-02-07T09:28:21;18.57;;;16.77;;
2840;SDS011;53423;49.224;12.074;2023-02-07T09:30:49;18.50;;;16.60;;
2840;SDS011;53423;49.224;12.074;2023-02-07T09:33:18;21.10;;;18.90;;
2840;SDS011;53423;49.224;12.074;2023-02-07T09:35:48;23.67;;;21.20;;
2840;SDS011;53423;49.224;12.074;2023-02-07T09:38:17;20.77;;;18.50;;
2840;SDS011;53423;49.224;12.074;2023-02-07T09:40:47;28.93;;;24.33;;
2840;SDS011;53423;49.224;12.074;2023-02-07T09:43:19;20.43;;;18.20;;
2840;SDS011;53423;49.224;12.074;2023-02-07T09:46:05;21.37;;;19.10;;
2840;SDS011;53423;49.224;12.074;2023-02-07T09:48:42;23.17;;;20.67;;
2840;SDS011;53423;49.224;12.074;2023-02-07T09:51:13;19.67;;;17.57;;
2840;SDS011;53423;49.224;12.074;2023-02-07T09:53:45;20.43;;;18.23;;
2840;SDS011;53423;49.224;12.074;2023-02-07T09:56:17;19.33;;;17.33;;
2840;SDS011;53423;49.224;12.074;2023-02-07T09:58:49;20.43;;;18.27;;
2840;SDS011;53423;49.224;12.074;2023-02-07T10:01:24;24.20;;;21.13;;
2840;SDS011;53423;49.224;12.074;2023-02-07T10:04:00;20.63;;;18.43;;
2840;SDS011;53423;49.224;12.074;2023-02-07T10:06:34;20.57;;;18.40;;
2840;SDS011;53423;49.224;12.074;2023-02-07T10:09:05;20.77;;;18.57;;
2840;SDS011;53423;49.224;12.074;2023-02-07T10:11:41;19.03;;;17.03;;
2840;SDS011;53423;49.224;12.074;2023-02-07T10:14:21;20.17;;;18.03;;
2840;SDS011;53423;49.224;12.074;2023-02-07T10:17:10;20.37;;;17.93;;
2840;SDS011;53423;49.224;12.074;2023-02-07T10:19:59;19.47;;;17.37;;
2840;SDS011;53423;49.224;12.074;2023-02-07T10:22:40;20.37;;;18.27;;
2840;SDS011;53423;49.224;12.074;2023-02-07T10:25:19;21.07;;;18.83;;
2840;SDS011;53423;49.224;12.074;2023-02-07T10:28:02;22.83;;;19.43;;
2840;SDS011;53423;49.224;12.074;2023-02-07T10:30:42;20.43;;;18.10;;
2840;SDS011;53423;49.224;12.074;2023-02-07T10:33:16;19.93;;;17.93;;
2840;SDS011;53423;49.224;12.074;2023-02-07T10:35:46;19.43;;;17.10;;
2840;SDS011;53423;49.224;12.074;2023-02-07T10:38:19;20.73;;;18.33;;
2840;SDS011;53423;49.224;12.074;2023-02-07T10:40:52;21.60;;;19.40;;
2840;SDS011;53423;49.224;12.074;2023-02-07T10:43:27;19.57;;;17.47;;
2840;SDS011;53423;49.224;12.074;2023-02-07T10:45:59;21.47;;;19.23;;
2840;SDS011;53423;49.224;12.074;2023-02-07T10:48:32;21.33;;;17.83;;
2840;SDS011;53423;49.224;12.074;2023-02-07T10:51:01;26.03;;;22.30;;
2840;SDS011;53423;49.224;12.074;2023-02-07T10:53:43;22.93;;;20.40;;
2840;SDS011;53423;49.224;12.074;2023-02-07T10:56:21;20.27;;;18.17;;
2840;SDS011;53423;49.224;12.074;2023-02-07T10:58:50;25.73;;;21.17;;
2840;SDS011;53423;49.224;12.074;2023-02-07T11:01:21;27.57;;;21.23;;
2840;SDS011;53423;49.224;12.074;2023-02-07T11:03:51;25.47;;;20.60;;
2840;SDS011;53423;49.224;12.074;2023-02-07T11:06:23;21.80;;;19.03;;
2840;SDS011;53423;49.224;12.074;2023-02-07T11:09:09;19.37;;;17.20;;
2840;SDS011;53423;49.224;12.074;2023-02-07T11:11:38;20.30;;;17.17;;
2840;SDS011;53423;49.224;12.074;2023-02-07T11:14:10;25.07;;;21.20;;
2840;SDS011;53423;49.224;12.074;2023-02-07T11:16:44;23.17;;;19.93;;
2840;SDS011;53423;49.224;12.074;2023-02-07T11:19:14;23.10;;;20.60;;
2840;SDS011;53423;49.224;12.074;2023-02-07T11:21:46;22.57;;;19.53;;
2840;SDS011;53423;49.224;12.074;2023-02-07T11:24:16;19.30;;;17.30;;
2840;SDS011;53423;49.224;12.074;2023-02-07T11:26:50;19.73;;;17.40;;
2840;SDS011;53423;49.224;12.074;2023-02-07T11:29:21;20.53;;;17.73;;
2840;SDS011;53423;49.224;12.074;2023-02-07T11:31:53;20.43;;;18.03;;
2840;SDS011;53423;49.224;12.074;2023-02-07T11:34:30;19.17;;;17.10;;
2840;SDS011;53423;49.224;12.074;2023-02-07T11:37:23;27.70;;;21.20;;
2840;SDS011;53423;49.224;12.074;2023-02-07T11:39:54;28.37;;;22.90;;
2840;SDS011;53423;49.224;12.074;2023-02-07T11:42:24;20.27;;;18.07;;
2840;SDS011;53423;49.224;12.074;2023-02-07T11:44:57;17.67;;;15.97;;
2840;SDS011;53423;49.224;12.074;2023-02-07T11:47:31;17.80;;;16.00;;
2840;SDS011;53423;49.224;12.074;2023-02-07T11:50:03;18.27;;;16.37;;
2840;SDS011;53423;49.224;12.074;2023-02-07T11:52:35;17.30;;;15.63;;
2840;SDS011;53423;49.224;12.074;2023-02-07T11:55:06;17.50;;;15.80;;
2840;SDS011;53423;49.224;12.074;2023-02-07T11:57:37;17.37;;;15.67;;
2840;SDS011;53423;49.224;12.074;2023-02-07T12:00:06;17.23;;;15.63;;
2840;SDS011;53423;49.224;12.074;2023-02-07T12:02:47;16.57;;;15.03;;
2840;SDS011;53423;49.224;12.074;2023-02-07T12:05:18;16.03;;;14.53;;
2840;SDS011;53423;49.224;12.074;2023-02-07T12:07:49;16.93;;;15.40;;
2840;SDS011;53423;49.224;12.074;2023-02-07T12:10:20;15.87;;;14.37;;
2840;SDS011;53423;49.224;12.074;2023-02-07T12:12:50;15.67;;;14.27;;
2840;SDS011;53423;49.224;12.074;2023-02-07T12:15:24;17.10;;;15.50;;
2840;SDS011;53423;49.224;12.074;2023-02-07T12:18:02;14.97;;;13.63;;
2840;SDS011;53423;49.224;12.074;2023-02-07T12:20:38;16.73;;;15.13;;
2840;SDS011;53423;49.224;12.074;2023-02-07T12:23:11;14.83;;;13.53;;
2840;SDS011;53423;49.224;12.074;2023-02-07T12:26:05;14.83;;;13.43;;
2840;SDS011;53423;49.224;12.074;2023-02-07T12:28:41;15.67;;;14.17;;
2840;SDS011;53423;49.224;12.074;2023-02-07T12:31:17;14.80;;;13.40;;
2840;SDS011;53423;49.224;12.074;2023-02-07T12:33:56;14.93;;;13.53;;
2840;SDS011;53423;49.224;12.074;2023-02-07T12:36:28;14.90;;;13.40;;
2840;SDS011;53423;49.224;12.074;2023-02-07T12:39:02;15.97;;;14.47;;
2840;SDS011;53423;49.224;12.074;2023-02-07T12:41:38;14.50;;;13.10;;
2840;SDS011;53423;49.224;12.074;2023-02-07T12:44:12;15.47;;;13.93;;
2840;SDS011;53423;49.224;12.074;2023-02-07T12:46:51;15.50;;;14.00;;
2840;SDS011;53423;49.224;12.074;2023-02-07T12:49:38;15.77;;;14.27;;
2840;SDS011;53423;49.224;12.074;2023-02-07T12:52:25;14.47;;;12.97;;
2840;SDS011;53423;49.224;12.074;2023-02-07T12:55:07;14.97;;;13.43;;
2840;SDS011;53423;49.224;12.074;2023-02-07T12:57:47;14.63;;;13.13;;
2840;SDS011;53423;49.224;12.074;2023-02-07T13:00:26;14.20;;;12.70;;
2840;SDS011;53423;49.224;12.074;2023-02-07T13:03:04;16.13;;;14.43;;
2840;SDS011;53423;49.224;12.074;2023-02-07T13:05:51;15.30;;;13.77;;
2840;SDS011;53423;49.224;12.074;2023-02-07T13:08:32;15.70;;;14.07;;
2840;SDS011;53423;49.224;12.074;2023-02-07T13:11:17;16.03;;;14.23;;
2840;SDS011;53423;49.224;12.074;2023-02-07T13:13:53;15.13;;;13.57;;
2840;SDS011;53423;49.224;12.074;2023-02-07T13:16:33;15.87;;;14.17;;
2840;SDS011;53423;49.224;12.074;2023-02-07T13:19:09;15.30;;;13.70;;
2840;SDS011;53423;49.224;12.074;2023-02-07T13:21:45;14.93;;;13.33;;
2840;SDS011;53423;49.224;12.074;2023-02-07T13:24:18;15.00;;;13.40;;
2840;SDS011;53423;49.224;12.074;2023-02-07T13:26:50;16.73;;;14.87;;
2840;SDS011;53423;49.224;12.074;2023-02-07T13:29:20;17.33;;;15.57;;
2840;SDS011;53423;49.224;12.074;2023-02-07T13:31:50;15.57;;;13.97;;
2840;SDS011;53423;49.224;12.074;2023-02-07T13:34:22;15.23;;;13.30;;
2840;SDS011;53423;49.224;12.074;2023-02-07T13:36:54;14.83;;;12.93;;
2840;SDS011;53423;49.224;12.074;2023-02-07T13:39:32;13.70;;;12.30;;
2840;SDS011;53423;49.224;12.074;2023-02-07T13:42:11;13.67;;;12.23;;
2840;SDS011;53423;49.224;12.074;2023-02-07T13:44:48;18.37;;;14.70;;
2840;SDS011;53423;49.224;12.074;2023-02-07T13:47:30;25.63;;;20.60;;
2840;SDS011;53423;49.224;12.074;2023-02-07T13:50:19;15.50;;;12.93;;
2840;SDS011;53423;49.224;12.074;2023-02-07T13:52:58;14.17;;;11.97;;
2840;SDS011;53423;49.224;12.074;2023-02-07T13:55:32;13.60;;;12.00;;
2840;SDS011;53423;49.224;12.074;2023-02-07T13:58:03;13.77;;;12.40;;
2840;SDS011;53423;49.224;12.074;2023-02-07T14:01:13;13.70;;;11.47;;
2840;SDS011;53423;49.224;12.074;2023-02-07T14:03:43;13.53;;;12.13;;
2840;SDS011;53423;49.224;12.074;2023-02-07T14:06:28;15.00;;;12.03;;
2840;SDS011;53423;49.224;12.074;2023-02-07T14:09:01;13.53;;;11.80;;
2840;SDS011;53423;49.224;12.074;2023-02-07T14:11:43;14.73;;;13.13;;
2840;SDS011;53423;49.224;12.074;2023-02-07T14:14:22;15.57;;;13.10;;
2840;SDS011;53423;49.224;12.074;2023-02-07T14:16:52;13.47;;;12.10;;
2840;SDS011;53423;49.224;12.074;2023-02-07T14:22:17;13.77;;;12.30;;
2840;SDS011;53423;49.224;12.074;2023-02-07T14:24:49;13.33;;;11.93;;
2840;SDS011;53423;49.224;12.074;2023-02-07T14:27:39;15.27;;;13.03;;
2840;SDS011;53423;49.224;12.074;2023-02-07T14:30:14;13.93;;;11.53;;
2840;SDS011;53423;49.224;12.074;2023-02-07T14:35:43;14.70;;;13.07;;
2840;SDS011;53423;49.224;12.074;2023-02-07T14:38:31;16.60;;;12.77;;
2840;SDS011;53423;49.224;12.074;2023-02-07T14:41:03;13.50;;;12.10;;
2840;SDS011;53423;49.224;12.074;2023-02-07T14:43:41;13.90;;;12.07;;
2840;SDS011;53423;49.224;12.074;2023-02-07T14:46:29;14.83;;;13.23;;
2840;SDS011;53423;49.224;12.074;2023-02-07T14:49:03;13.37;;;11.67;;
2840;SDS011;53423;49.224;12.074;2023-02-07T14:51:38;13.87;;;11.83;;
2840;SDS011;53423;49.224;12.074;2023-02-07T14:54:13;14.80;;;13.20;;
2840;SDS011;53423;49.224;12.074;2023-02-07T14:59:34;12.80;;;11.43;;
2840;SDS011;53423;49.224;12.074;2023-02-07T15:04:56;13.00;;;11.67;;